sensor_id;sensor_type;location;lat;lon;timestamp;pressure;altitude;pressure_sealevel;temperature;humidity
66524;BME280;53350;52.210;5.160;2022-12-18T00:01:43;102894.19;;;0.11;73.30
66524;BME280;53350;52.210;5.160;2022-12-18T00:04:15;102880.47;;;0.08;72.30
66524;BME280;53350;52.210;5.160;2022-12-18T00:06:45;102885.25;;;0.03;72.82
66524;BME280;53350;52.210;5.160;2022-12-18T00:09:11;102890.78;;;-0.03;73.55
66524;BME280;53350;52.210;5.160;2022-12-18T00:11:38;102887.06;;;-0.08;73.46
66524;BME280;53350;52.210;5.160;2022-12-18T00:14:04;102884.84;;;-0.03;73.33
66524;BME280;53350;52.210;5.160;2022-12-18T00:16:31;102890.00;;;-0.02;72.55
66524;BME280;53350;52.210;5.160;2022-12-18T00:19:01;102887.06;;;-0.08;72.76
66524;BME280;53350;52.210;5.160;2022-12-18T00:21:28;102896.44;;;-0.07;72.58
66524;BME280;53350;52.210;5.160;2022-12-18T00:23:56;102887.75;;;-0.10;72.34
66524;BME280;53350;52.210;5.160;2022-12-18T00:26:24;102888.22;;;-0.16;72.15
66524;BME280;53350;52.210;5.160;2022-12-18T00:28:51;102892.31;;;-0.18;71.76
66524;BME280;53350;52.210;5.160;2022-12-18T00:31:20;102882.88;;;-0.21;72.03
66524;BME280;53350;52.210;5.160;2022-12-18T00:33:47;102885.88;;;-0.26;72.34
66524;BME280;53350;52.210;5.160;2022-12-18T00:36:15;102882.47;;;-0.27;72.94
66524;BME280;53350;52.210;5.160;2022-12-18T00:38:42;102879.28;;;-0.24;72.91
66524;BME280;53350;52.210;5.160;2022-12-18T00:41:11;102880.25;;;-0.22;72.86
66524;BME280;53350;52.210;5.160;2022-12-18T00:43:38;102884.63;;;-0.20;72.32
66524;BME280;53350;52.210;5.160;2022-12-18T00:46:05;102884.63;;;-0.20;72.76
66524;BME280;53350;52.210;5.160;2022-12-18T00:48:31;102886.09;;;-0.23;72.95
66524;BME280;53350;52.210;5.160;2022-12-18T00:50:58;102893.00;;;-0.21;72.87
66524;BME280;53350;52.210;5.160;2022-12-18T00:53:24;102894.97;;;-0.16;73.42
66524;BME280;53350;52.210;5.160;2022-12-18T00:55:51;102887.56;;;-0.13;73.06
66524;BME280;53350;52.210;5.160;2022-12-18T00:58:18;102879.38;;;-0.09;72.99
66524;BME280;53350;52.210;5.160;2022-12-18T01:00:45;102877.94;;;-0.06;72.33
66524;BME280;53350;52.210;5.160;2022-12-18T01:03:13;102879.56;;;-0.06;72.64
66524;BME280;53350;52.210;5.160;2022-12-18T01:05:40;102883.78;;;-0.07;72.09
66524;BME280;53350;52.210;5.160;2022-12-18T01:08:06;102886.22;;;-0.08;72.48
66524;BME280;53350;52.210;5.160;2022-12-18T01:10:33;102890.28;;;-0.10;71.80
66524;BME280;53350;52.210;5.160;2022-12-18T01:12:59;102889.31;;;-0.12;72.42
66524;BME280;53350;52.210;5.160;2022-12-18T01:15:27;102885.91;;;-0.13;72.44
66524;BME280;53350;52.210;5.160;2022-12-18T01:17:53;102874.22;;;-0.11;71.77
66524;BME280;53350;52.210;5.160;2022-12-18T01:20:20;102876.66;;;-0.12;72.49
66524;BME280;53350;52.210;5.160;2022-12-18T01:22:46;102885.91;;;-0.13;72.93
66524;BME280;53350;52.210;5.160;2022-12-18T01:25:12;102879.09;;;-0.14;72.28
66524;BME280;53350;52.210;5.160;2022-12-18T01:27:39;102879.09;;;-0.14;72.21
66524;BME280;53350;52.210;5.160;2022-12-18T01:30:06;102885.03;;;-0.13;72.46
66524;BME280;53350;52.210;5.160;2022-12-18T01:32:34;102886.00;;;-0.11;71.86
66524;BME280;53350;52.210;5.160;2022-12-18T01:35:01;102890.28;;;-0.10;72.23
66524;BME280;53350;52.210;5.160;2022-12-18T01:37:28;102890.19;;;-0.12;71.37
66524;BME280;53350;52.210;5.160;2022-12-18T01:39:54;102886.69;;;-0.14;71.68
66524;BME280;53350;52.210;5.160;2022-12-18T01:42:21;102874.50;;;-0.20;71.79
66524;BME280;53350;52.210;5.160;2022-12-18T01:44:55;102882.88;;;-0.21;71.38
66524;BME280;53350;52.210;5.160;2022-12-18T01:47:27;102883.34;;;-0.26;71.39
66524;BME280;53350;52.210;5.160;2022-12-18T01:49:58;102886.34;;;-0.32;71.48
66524;BME280;53350;52.210;5.160;2022-12-18T01:52:27;102897.19;;;-0.34;71.41
66524;BME280;53350;52.210;5.160;2022-12-18T01:54:55;102900.28;;;-0.39;71.86
66524;BME280;53350;52.210;5.160;2022-12-18T01:57:23;102911.38;;;-0.37;72.12
66524;BME280;53350;52.210;5.160;2022-12-18T01:59:52;102922.31;;;-0.38;71.19
66524;BME280;53350;52.210;5.160;2022-12-18T02:02:20;102924.31;;;-0.45;71.62
66524;BME280;53350;52.210;5.160;2022-12-18T02:04:46;102914.06;;;-0.47;71.47
66524;BME280;53350;52.210;5.160;2022-12-18T02:07:18;102931.91;;;-0.45;71.54
66524;BME280;53350;52.210;5.160;2022-12-18T02:09:48;102928.50;;;-0.46;71.38
66524;BME280;53350;52.210;5.160;2022-12-18T02:12:19;102936.97;;;-0.45;72.08
66524;BME280;53350;52.210;5.160;2022-12-18T02:14:50;102935.00;;;-0.49;71.94
66524;BME280;53350;52.210;5.160;2022-12-18T02:17:20;102944.06;;;-0.53;71.73
66524;BME280;53350;52.210;5.160;2022-12-18T02:19:58;102944.72;;;-0.56;72.17
66524;BME280;53350;52.210;5.160;2022-12-18T02:22:39;102948.59;;;-0.61;71.71
66524;BME280;53350;52.210;5.160;2022-12-18T02:25:20;102942.44;;;-0.64;72.16
66524;BME280;53350;52.210;5.160;2022-12-18T02:27:52;102941.88;;;-0.60;71.95
66524;BME280;53350;52.210;5.160;2022-12-18T02:30:21;102937.13;;;-0.56;72.01
66524;BME280;53350;52.210;5.160;2022-12-18T02:32:50;102939.66;;;-0.56;72.19
66524;BME280;53350;52.210;5.160;2022-12-18T02:35:22;102929.72;;;-0.53;72.04
66524;BME280;53350;52.210;5.160;2022-12-18T02:37:49;102930.16;;;-0.46;72.20
66524;BME280;53350;52.210;5.160;2022-12-18T02:40:22;102924.31;;;-0.45;71.92
66524;BME280;53350;52.210;5.160;2022-12-18T02:42:49;102915.06;;;-0.45;71.87
66524;BME280;53350;52.210;5.160;2022-12-18T02:45:17;102904.06;;;-0.45;70.99
66524;BME280;53350;52.210;5.160;2022-12-18T02:47:47;102901.41;;;-0.47;70.77
66524;BME280;53350;52.210;5.160;2022-12-18T02:50:19;102901.88;;;-0.53;71.08
66524;BME280;53350;52.210;5.160;2022-12-18T02:52:54;102904.41;;;-0.53;71.04
66524;BME280;53350;52.210;5.160;2022-12-18T02:55:28;102889.22;;;-0.53;71.54
66524;BME280;53350;52.210;5.160;2022-12-18T02:58:04;102886.41;;;-0.57;71.07
66524;BME280;53350;52.210;5.160;2022-12-18T03:00:38;102891.25;;;-0.60;70.67
66524;BME280;53350;52.210;5.160;2022-12-18T03:03:07;102887.63;;;-0.64;70.70
66524;BME280;53350;52.210;5.160;2022-12-18T03:05:39;102888.91;;;-0.71;71.16
66524;BME280;53350;52.210;5.160;2022-12-18T03:08:08;102877.00;;;-0.72;71.50
66524;BME280;53350;52.210;5.160;2022-12-18T03:10:42;102888.13;;;-0.69;71.23
66524;BME280;53350;52.210;5.160;2022-12-18T03:13:13;102880.63;;;-0.68;71.38
66524;BME280;53350;52.210;5.160;2022-12-18T03:15:47;102874.78;;;-0.67;71.34
66524;BME280;53350;52.210;5.160;2022-12-18T03:18:16;102866.41;;;-0.66;71.12
66524;BME280;53350;52.210;5.160;2022-12-18T03:20:45;102867.28;;;-0.65;70.73
66524;BME280;53350;52.210;5.160;2022-12-18T03:23:18;102854.72;;;-0.64;71.03
66524;BME280;53350;52.210;5.160;2022-12-18T03:25:46;102854.53;;;-0.67;70.63
66524;BME280;53350;52.210;5.160;2022-12-18T03:28:16;102858.63;;;-0.69;71.19
66524;BME280;53350;52.210;5.160;2022-12-18T03:30:47;102855.00;;;-0.73;70.24
66524;BME280;53350;52.210;5.160;2022-12-18T03:33:19;102847.31;;;-0.74;70.55
66524;BME280;53350;52.210;5.160;2022-12-18T03:35:47;102829.00;;;-0.83;70.37
66524;BME280;53350;52.210;5.160;2022-12-18T03:38:14;102844.56;;;-0.77;70.83
66524;BME280;53350;52.210;5.160;2022-12-18T03:40:48;102849.53;;;-0.79;71.05
66524;BME280;53350;52.210;5.160;2022-12-18T03:43:22;102845.03;;;-0.83;70.48
66524;BME280;53350;52.210;5.160;2022-12-18T03:46:00;102841.16;;;-0.91;70.10
66524;BME280;53350;52.210;5.160;2022-12-18T03:48:31;102848.41;;;-0.96;70.17
66524;BME280;53350;52.210;5.160;2022-12-18T03:51:07;102843.13;;;-0.99;71.19
66524;BME280;53350;52.210;5.160;2022-12-18T03:53:38;102838.88;;;-1.00;70.82
66524;BME280;53350;52.210;5.160;2022-12-18T03:56:08;102840.59;;;-0.99;70.50
66524;BME280;53350;52.210;5.160;2022-12-18T03:58:37;102831.06;;;-1.03;70.00
66524;BME280;53350;52.210;5.160;2022-12-18T04:01:08;102830.94;;;-1.05;70.35
66524;BME280;53350;52.210;5.160;2022-12-18T04:03:37;102839.44;;;-1.04;70.26
66524;BME280;53350;52.210;5.160;2022-12-18T04:06:05;102827.66;;;-1.03;70.57
66524;BME280;53350;52.210;5.160;2022-12-18T04:08:32;102822.59;;;-1.03;70.01
66524;BME280;53350;52.210;5.160;2022-12-18T04:10:59;102810.72;;;-1.05;70.65
66524;BME280;53350;52.210;5.160;2022-12-18T04:13:29;102811.63;;;-1.04;69.98
66524;BME280;53350;52.210;5.160;2022-12-18T04:15:55;102800.31;;;-1.09;69.89
66524;BME280;53350;52.210;5.160;2022-12-18T04:18:23;102809.25;;;-1.14;69.59
66524;BME280;53350;52.210;5.160;2022-12-18T04:20:50;102802.22;;;-1.18;69.81
66524;BME280;53350;52.210;5.160;2022-12-18T04:23:16;102810.47;;;-1.21;70.10
66524;BME280;53350;52.210;5.160;2022-12-18T04:25:42;102806.97;;;-1.23;69.48
66524;BME280;53350;52.210;5.160;2022-12-18T04:28:09;102804.81;;;-1.30;70.14
66524;BME280;53350;52.210;5.160;2022-12-18T04:30:35;102812.06;;;-1.35;69.86
66524;BME280;53350;52.210;5.160;2022-12-18T04:33:02;102816.03;;;-1.38;69.39
66524;BME280;53350;52.210;5.160;2022-12-18T04:35:29;102815.81;;;-1.42;69.88
66524;BME280;53350;52.210;5.160;2022-12-18T04:37:56;102820.56;;;-1.46;69.52
66524;BME280;53350;52.210;5.160;2022-12-18T04:40:22;102825.88;;;-1.55;69.09
66524;BME280;53350;52.210;5.160;2022-12-18T04:42:49;102833.78;;;-1.62;69.56
66524;BME280;53350;52.210;5.160;2022-12-18T04:45:15;102836.75;;;-1.68;69.40
66524;BME280;53350;52.210;5.160;2022-12-18T04:47:41;102845.00;;;-1.70;69.74
66524;BME280;53350;52.210;5.160;2022-12-18T04:50:08;102835.00;;;-1.69;69.84
66524;BME280;53350;52.210;5.160;2022-12-18T04:52:36;102843.56;;;-1.67;69.36
66524;BME280;53350;52.210;5.160;2022-12-18T04:55:02;102847.19;;;-1.63;70.03
66524;BME280;53350;52.210;5.160;2022-12-18T04:57:29;102848.16;;;-1.61;69.50
66524;BME280;53350;52.210;5.160;2022-12-18T04:59:55;102852.34;;;-1.62;69.39
66524;BME280;53350;52.210;5.160;2022-12-18T05:02:22;102866.19;;;-1.68;69.03
66524;BME280;53350;52.210;5.160;2022-12-18T05:04:48;102861.47;;;-1.76;68.60
66524;BME280;53350;52.210;5.160;2022-12-18T05:07:14;102861.25;;;-1.79;69.46
66524;BME280;53350;52.210;5.160;2022-12-18T05:09:42;102865.56;;;-1.78;69.57
66524;BME280;53350;52.210;5.160;2022-12-18T05:12:09;102867.22;;;-1.78;69.32
66524;BME280;53350;52.210;5.160;2022-12-18T05:14:35;102870.59;;;-1.78;69.28
66524;BME280;53350;52.210;5.160;2022-12-18T05:17:01;102870.91;;;-1.73;69.50
66524;BME280;53350;52.210;5.160;2022-12-18T05:19:28;102866.97;;;-1.69;69.49
66524;BME280;53350;52.210;5.160;2022-12-18T05:21:54;102873.88;;;-1.67;69.42
66524;BME280;53350;52.210;5.160;2022-12-18T05:24:20;102879.03;;;-1.65;69.03
66524;BME280;53350;52.210;5.160;2022-12-18T05:26:48;102893.31;;;-1.66;69.13
66524;BME280;53350;52.210;5.160;2022-12-18T05:29:15;102898.47;;;-1.64;69.07
66524;BME280;53350;52.210;5.160;2022-12-18T05:31:41;102895.19;;;-1.63;68.95
66524;BME280;53350;52.210;5.160;2022-12-18T05:34:08;102891.91;;;-1.62;68.93
66524;BME280;53350;52.210;5.160;2022-12-18T05:36:34;102885.31;;;-1.60;68.43
66524;BME280;53350;52.210;5.160;2022-12-18T05:39:01;102878.69;;;-1.58;68.79
66524;BME280;53350;52.210;5.160;2022-12-18T05:41:27;102858.47;;;-1.58;68.11
66524;BME280;53350;52.210;5.160;2022-12-18T05:43:55;102860.91;;;-1.60;68.11
66524;BME280;53350;52.210;5.160;2022-12-18T05:46:21;102859.06;;;-1.62;68.40
66524;BME280;53350;52.210;5.160;2022-12-18T05:48:48;102857.28;;;-1.63;67.71
66524;BME280;53350;52.210;5.160;2022-12-18T05:51:17;102861.34;;;-1.65;68.32
66524;BME280;53350;52.210;5.160;2022-12-18T05:53:45;102862.13;;;-1.66;67.33
66524;BME280;53350;52.210;5.160;2022-12-18T05:56:13;102848.19;;;-1.73;67.96
66524;BME280;53350;52.210;5.160;2022-12-18T05:58:40;102837.31;;;-1.72;67.83
66524;BME280;53350;52.210;5.160;2022-12-18T06:01:11;102838.63;;;-1.77;68.17
66524;BME280;53350;52.210;5.160;2022-12-18T06:03:38;102845.56;;;-1.75;67.89
66524;BME280;53350;52.210;5.160;2022-12-18T06:06:12;102847.09;;;-1.77;67.87
66524;BME280;53350;52.210;5.160;2022-12-18T06:08:39;102845.34;;;-1.78;68.14
66524;BME280;53350;52.210;5.160;2022-12-18T06:11:05;102832.59;;;-1.79;67.31
66524;BME280;53350;52.210;5.160;2022-12-18T06:13:32;102835.03;;;-1.81;67.73
66524;BME280;53350;52.210;5.160;2022-12-18T06:16:01;102824.72;;;-1.84;67.43
66524;BME280;53350;52.210;5.160;2022-12-18T06:18:29;102827.00;;;-1.87;67.47
66524;BME280;53350;52.210;5.160;2022-12-18T06:20:56;102830.84;;;-1.92;67.70
66524;BME280;53350;52.210;5.160;2022-12-18T06:23:23;102836.44;;;-1.96;68.00
66524;BME280;53350;52.210;5.160;2022-12-18T06:25:50;102832.75;;;-2.01;67.95
66524;BME280;53350;52.210;5.160;2022-12-18T06:28:16;102830.88;;;-2.04;67.47
66524;BME280;53350;52.210;5.160;2022-12-18T06:30:43;102830.88;;;-2.04;67.36
66524;BME280;53350;52.210;5.160;2022-12-18T06:33:10;102820.75;;;-2.04;67.90
66524;BME280;53350;52.210;5.160;2022-12-18T06:35:37;102823.41;;;-2.02;68.18
66524;BME280;53350;52.210;5.160;2022-12-18T06:38:04;102821.09;;;-1.99;67.95
66524;BME280;53350;52.210;5.160;2022-12-18T06:40:30;102807.59;;;-2.00;68.10
66524;BME280;53350;52.210;5.160;2022-12-18T06:42:57;102804.16;;;-2.00;68.15
66524;BME280;53350;52.210;5.160;2022-12-18T06:45:23;102799.22;;;-1.99;68.20
66524;BME280;53350;52.210;5.160;2022-12-18T06:47:50;102784.97;;;-1.98;67.69
66524;BME280;53350;52.210;5.160;2022-12-18T06:50:16;102789.91;;;-2.00;67.73
66524;BME280;53350;52.210;5.160;2022-12-18T06:52:44;102779.47;;;-2.04;67.82
66524;BME280;53350;52.210;5.160;2022-12-18T06:55:11;102786.28;;;-2.03;67.85
66524;BME280;53350;52.210;5.160;2022-12-18T06:57:37;102777.84;;;-2.04;68.05
66524;BME280;53350;52.210;5.160;2022-12-18T07:00:06;102777.19;;;-2.01;67.91
66524;BME280;53350;52.210;5.160;2022-12-18T07:02:33;102773.66;;;-2.03;68.11
66524;BME280;53350;52.210;5.160;2022-12-18T07:05:00;102771.78;;;-2.06;67.24
66524;BME280;53350;52.210;5.160;2022-12-18T07:07:26;102774.31;;;-2.06;67.34
66524;BME280;53350;52.210;5.160;2022-12-18T07:09:54;102768.28;;;-2.08;67.57
66524;BME280;53350;52.210;5.160;2022-12-18T07:12:20;102765.66;;;-2.10;67.34
66524;BME280;53350;52.210;5.160;2022-12-18T07:14:46;102776.63;;;-2.09;67.86
66524;BME280;53350;52.210;5.160;2022-12-18T07:17:13;102771.69;;;-2.07;67.97
66524;BME280;53350;52.210;5.160;2022-12-18T07:19:39;102760.81;;;-2.06;68.06
66524;BME280;53350;52.210;5.160;2022-12-18T07:22:06;102759.94;;;-2.07;67.60
66524;BME280;53350;52.210;5.160;2022-12-18T07:24:32;102755.66;;;-2.08;67.68
66524;BME280;53350;52.210;5.160;2022-12-18T07:27:00;102760.81;;;-2.06;68.58
66524;BME280;53350;52.210;5.160;2022-12-18T07:29:26;102761.78;;;-2.04;67.91
66524;BME280;53350;52.210;5.160;2022-12-18T07:31:53;102750.81;;;-2.05;68.08
66524;BME280;53350;52.210;5.160;2022-12-18T07:34:20;102746.63;;;-2.04;67.56
66524;BME280;53350;52.210;5.160;2022-12-18T07:36:46;102745.00;;;-2.04;67.94
66524;BME280;53350;52.210;5.160;2022-12-18T07:39:12;102747.53;;;-2.04;67.52
66524;BME280;53350;52.210;5.160;2022-12-18T07:41:39;102738.84;;;-2.07;67.69
66524;BME280;53350;52.210;5.160;2022-12-18T07:44:12;102723.91;;;-2.04;67.58
66524;BME280;53350;52.210;5.160;2022-12-18T07:46:38;102718.00;;;-2.05;67.58
66524;BME280;53350;52.210;5.160;2022-12-18T07:49:05;102722.28;;;-2.04;67.30
66524;BME280;53350;52.210;5.160;2022-12-18T07:51:31;102713.06;;;-2.03;67.29
66524;BME280;53350;52.210;5.160;2022-12-18T07:53:58;102712.84;;;-2.06;66.84
66524;BME280;53350;52.210;5.160;2022-12-18T07:56:24;102712.63;;;-2.10;67.27
66524;BME280;53350;52.210;5.160;2022-12-18T07:58:51;102713.50;;;-2.09;67.25
66524;BME280;53350;52.210;5.160;2022-12-18T08:01:18;102707.69;;;-2.08;67.36
66524;BME280;53350;52.210;5.160;2022-12-18T08:03:45;102704.41;;;-2.07;67.12
66524;BME280;53350;52.210;5.160;2022-12-18T08:06:11;102698.47;;;-2.07;67.69
66524;BME280;53350;52.210;5.160;2022-12-18T08:08:37;102691.00;;;-2.06;67.21
66524;BME280;53350;52.210;5.160;2022-12-18T08:11:05;102709.56;;;-2.05;67.99
66524;BME280;53350;52.210;5.160;2022-12-18T08:13:32;102707.13;;;-2.04;67.53
66524;BME280;53350;52.210;5.160;2022-12-18T08:16:01;102704.41;;;-2.07;68.32
66524;BME280;53350;52.210;5.160;2022-12-18T08:18:29;102723.25;;;-2.02;67.95
66524;BME280;53350;52.210;5.160;2022-12-18T08:21:07;102739.41;;;-2.00;68.30
66524;BME280;53350;52.210;5.160;2022-12-18T08:23:34;102720.06;;;-1.99;68.51
66524;BME280;53350;52.210;5.160;2022-12-18T08:26:00;102735.09;;;-1.89;68.57
66524;BME280;53350;52.210;5.160;2022-12-18T08:28:27;102739.03;;;-1.81;68.33
66524;BME280;53350;52.210;5.160;2022-12-18T08:30:53;102743.63;;;-1.75;68.39
66524;BME280;53350;52.210;5.160;2022-12-18T08:33:19;102732.19;;;-1.70;68.57
66524;BME280;53350;52.210;5.160;2022-12-18T08:35:47;102747.53;;;-1.67;67.85
66524;BME280;53350;52.210;5.160;2022-12-18T08:38:14;102738.44;;;-1.65;68.33
66524;BME280;53350;52.210;5.160;2022-12-18T08:40:40;102738.53;;;-1.63;67.88
66524;BME280;53350;52.210;5.160;2022-12-18T08:43:09;102730.41;;;-1.59;67.77
66524;BME280;53350;52.210;5.160;2022-12-18T08:45:53;102724.78;;;-1.55;68.24
66524;BME280;53350;52.210;5.160;2022-12-18T08:48:20;102717.41;;;-1.52;67.85
66524;BME280;53350;52.210;5.160;2022-12-18T08:50:55;102707.97;;;-1.54;68.06
66524;BME280;53350;52.210;5.160;2022-12-18T08:53:21;102716.50;;;-1.52;68.24
66524;BME280;53350;52.210;5.160;2022-12-18T08:55:51;102722.56;;;-1.50;68.03
66524;BME280;53350;52.210;5.160;2022-12-18T08:58:18;102724.28;;;-1.49;67.91
66524;BME280;53350;52.210;5.160;2022-12-18T09:00:44;102729.59;;;-1.46;68.42
66524;BME280;53350;52.210;5.160;2022-12-18T09:03:12;102714.72;;;-1.42;68.06
66524;BME280;53350;52.210;5.160;2022-12-18T09:05:38;102697.22;;;-1.38;67.40
66524;BME280;53350;52.210;5.160;2022-12-18T09:08:06;102715.50;;;-1.43;68.26
66524;BME280;53350;52.210;5.160;2022-12-18T09:10:33;102706.94;;;-1.45;67.85
66524;BME280;53350;52.210;5.160;2022-12-18T09:12:59;102712.88;;;-1.44;67.94
66524;BME280;53350;52.210;5.160;2022-12-18T09:15:26;102715.69;;;-1.40;67.65
66524;BME280;53350;52.210;5.160;2022-12-18T09:17:52;102721.94;;;-1.34;67.62
66524;BME280;53350;52.210;5.160;2022-12-18T09:20:19;102717.00;;;-1.33;68.32
66524;BME280;53350;52.210;5.160;2022-12-18T09:22:45;102719.06;;;-1.27;68.43
66524;BME280;53350;52.210;5.160;2022-12-18T09:25:13;102703.41;;;-1.21;68.58
66524;BME280;53350;52.210;5.160;2022-12-18T09:27:39;102709.34;;;-1.21;68.53
66524;BME280;53350;52.210;5.160;2022-12-18T09:30:07;102707.88;;;-1.17;68.37
66524;BME280;53350;52.210;5.160;2022-12-18T09:32:33;102690.50;;;-1.13;68.09
66524;BME280;53350;52.210;5.160;2022-12-18T09:35:00;102698.38;;;-1.08;68.11
66524;BME280;53350;52.210;5.160;2022-12-18T09:37:26;102691.84;;;-1.05;68.61
66524;BME280;53350;52.210;5.160;2022-12-18T09:39:53;102697.00;;;-1.03;68.51
66524;BME280;53350;52.210;5.160;2022-12-18T09:42:21;102692.84;;;-1.02;68.54
66524;BME280;53350;52.210;5.160;2022-12-18T09:44:49;102699.88;;;-0.98;68.67
66524;BME280;53350;52.210;5.160;2022-12-18T09:47:18;102698.41;;;-0.95;68.38
66524;BME280;53350;52.210;5.160;2022-12-18T09:49:48;102697.25;;;-0.86;68.66
66524;BME280;53350;52.210;5.160;2022-12-18T09:52:20;102694.91;;;-0.83;68.06
66524;BME280;53350;52.210;5.160;2022-12-18T09:54:51;102682.56;;;-0.79;68.70
66524;BME280;53350;52.210;5.160;2022-12-18T09:57:23;102668.47;;;-0.75;68.77
66524;BME280;53350;52.210;5.160;2022-12-18T09:59:54;102674.75;;;-0.68;69.25
66524;BME280;53350;52.210;5.160;2022-12-18T10:02:22;102655.69;;;-0.63;68.04
66524;BME280;53350;52.210;5.160;2022-12-18T10:05:05;102647.53;;;-0.59;68.07
66524;BME280;53350;52.210;5.160;2022-12-18T10:07:41;102655.97;;;-0.59;68.30
66524;BME280;53350;52.210;5.160;2022-12-18T10:10:17;102658.41;;;-0.60;68.30
66524;BME280;53350;52.210;5.160;2022-12-18T10:12:53;102667.16;;;-0.55;67.94
66524;BME280;53350;52.210;5.160;2022-12-18T10:15:24;102680.91;;;-0.51;68.80
66524;BME280;53350;52.210;5.160;2022-12-18T10:17:58;102694.59;;;-0.48;68.67
66524;BME280;53350;52.210;5.160;2022-12-18T10:20:32;102692.97;;;-0.47;69.18
66524;BME280;53350;52.210;5.160;2022-12-18T10:23:04;102669.78;;;-0.40;68.68
66524;BME280;53350;52.210;5.160;2022-12-18T10:25:41;102669.50;;;-0.31;68.60
66524;BME280;53350;52.210;5.160;2022-12-18T10:28:16;102657.88;;;-0.28;68.03
66524;BME280;53350;52.210;5.160;2022-12-18T10:30:44;102653.97;;;-0.23;68.10
66524;BME280;53350;52.210;5.160;2022-12-18T10:33:12;102658.47;;;-0.19;68.47
66524;BME280;53350;52.210;5.160;2022-12-18T10:35:43;102660.50;;;-0.13;68.27
66524;BME280;53350;52.210;5.160;2022-12-18T10:38:21;102661.53;;;-0.09;68.93
66524;BME280;53350;52.210;5.160;2022-12-18T10:40:50;102641.38;;;-0.08;68.00
66524;BME280;53350;52.210;5.160;2022-12-18T10:43:22;102632.41;;;-0.03;68.47
66524;BME280;53350;52.210;5.160;2022-12-18T10:46:00;102633.94;;;-0.05;68.86
66524;BME280;53350;52.210;5.160;2022-12-18T10:48:28;102638.34;;;-0.02;68.47
66524;BME280;53350;52.210;5.160;2022-12-18T10:50:55;102637.91;;;0.05;68.67
66524;BME280;53350;52.210;5.160;2022-12-18T10:53:26;102627.19;;;0.09;68.77
66524;BME280;53350;52.210;5.160;2022-12-18T10:55:54;102632.69;;;0.17;69.03
66524;BME280;53350;52.210;5.160;2022-12-18T10:58:24;102616.03;;;0.21;68.24
66524;BME280;53350;52.210;5.160;2022-12-18T11:01:04;102608.88;;;0.28;68.80
66524;BME280;53350;52.210;5.160;2022-12-18T11:03:32;102591.22;;;0.30;68.56
66524;BME280;53350;52.210;5.160;2022-12-18T11:06:03;102598.13;;;0.32;67.70
66524;BME280;53350;52.210;5.160;2022-12-18T11:08:30;102590.63;;;0.34;68.55
66524;BME280;53350;52.210;5.160;2022-12-18T11:10:57;102596.03;;;0.40;68.42
66524;BME280;53350;52.210;5.160;2022-12-18T11:13:27;102585.72;;;0.37;68.22
66524;BME280;53350;52.210;5.160;2022-12-18T11:15:54;102595.78;;;0.50;68.27
66524;BME280;53350;52.210;5.160;2022-12-18T11:18:25;102592.63;;;0.55;68.59
66524;BME280;53350;52.210;5.160;2022-12-18T11:20:53;102581.97;;;0.60;68.01
66524;BME280;53350;52.210;5.160;2022-12-18T11:23:23;102577.16;;;0.65;67.58
66524;BME280;53350;52.210;5.160;2022-12-18T11:25:51;102575.59;;;0.67;67.58
66524;BME280;53350;52.210;5.160;2022-12-18T11:28:36;102583.44;;;0.72;68.16
66524;BME280;53350;52.210;5.160;2022-12-18T11:31:18;102579.41;;;0.75;68.02
66524;BME280;53350;52.210;5.160;2022-12-18T11:33:47;102579.78;;;0.81;67.92
66524;BME280;53350;52.210;5.160;2022-12-18T11:36:17;102580.88;;;0.86;68.30
66524;BME280;53350;52.210;5.160;2022-12-18T11:38:45;102577.75;;;0.91;68.05
66524;BME280;53350;52.210;5.160;2022-12-18T11:41:14;102579.91;;;0.99;67.95
66524;BME280;53350;52.210;5.160;2022-12-18T11:43:52;102586.81;;;1.02;68.77
66524;BME280;53350;52.210;5.160;2022-12-18T11:46:25;102581.06;;;1.04;68.05
66524;BME280;53350;52.210;5.160;2022-12-18T11:48:58;102564.22;;;1.07;67.16
66524;BME280;53350;52.210;5.160;2022-12-18T11:51:33;102567.75;;;1.09;68.54
66524;BME280;53350;52.210;5.160;2022-12-18T11:54:01;102550.31;;;1.15;68.13
66524;BME280;53350;52.210;5.160;2022-12-18T11:56:36;102545.47;;;1.19;67.30
66524;BME280;53350;52.210;5.160;2022-12-18T11:59:15;102536.34;;;1.23;67.24
66524;BME280;53350;52.210;5.160;2022-12-18T12:01:48;102526.19;;;1.23;67.35
66524;BME280;53350;52.210;5.160;2022-12-18T12:04:40;102520.31;;;1.24;68.19
66524;BME280;53350;52.210;5.160;2022-12-18T12:07:19;102514.63;;;1.28;67.27
66524;BME280;53350;52.210;5.160;2022-12-18T12:09:56;102499.47;;;1.30;67.02
66524;BME280;53350;52.210;5.160;2022-12-18T12:12:34;102503.06;;;1.33;66.47
66524;BME280;53350;52.210;5.160;2022-12-18T12:15:19;102500.53;;;1.33;67.59
66524;BME280;53350;52.210;5.160;2022-12-18T12:17:50;102495.59;;;1.36;67.68
66524;BME280;53350;52.210;5.160;2022-12-18T12:20:22;102490.69;;;1.39;67.64
66524;BME280;53350;52.210;5.160;2022-12-18T12:22:55;102496.84;;;1.45;66.94
66524;BME280;53350;52.210;5.160;2022-12-18T12:25:33;102489.56;;;1.51;67.08
66524;BME280;53350;52.210;5.160;2022-12-18T12:28:15;102494.81;;;1.54;66.66
66524;BME280;53350;52.210;5.160;2022-12-18T12:30:52;102489.09;;;1.58;66.15
66524;BME280;53350;52.210;5.160;2022-12-18T12:33:30;102488.34;;;1.61;66.51
66524;BME280;53350;52.210;5.160;2022-12-18T12:36:04;102482.50;;;1.62;66.56
66524;BME280;53350;52.210;5.160;2022-12-18T12:38:37;102484.41;;;1.66;66.55
66524;BME280;53350;52.210;5.160;2022-12-18T12:41:10;102476.84;;;1.67;65.84
66524;BME280;53350;52.210;5.160;2022-12-18T12:44:01;102460.81;;;1.68;65.61
66524;BME280;53350;52.210;5.160;2022-12-18T12:46:34;102459.22;;;1.70;65.67
66524;BME280;53350;52.210;5.160;2022-12-18T12:49:03;102448.19;;;1.70;65.31
66524;BME280;53350;52.210;5.160;2022-12-18T12:51:37;102454.16;;;1.70;66.20
66524;BME280;53350;52.210;5.160;2022-12-18T12:54:08;102450.75;;;1.70;65.24
66524;BME280;53350;52.210;5.160;2022-12-18T12:56:43;102447.56;;;1.74;65.98
66524;BME280;53350;52.210;5.160;2022-12-18T12:59:16;102450.91;;;1.73;65.85
66524;BME280;53350;52.210;5.160;2022-12-18T13:01:54;102451.81;;;1.75;65.87
66524;BME280;53350;52.210;5.160;2022-12-18T13:04:27;102444.28;;;1.77;64.94